createdAt,value
2018-03-19T00:00:07.673Z,984.20
2018-03-19T00:01:07.806Z,984.22
2018-03-19T00:02:07.949Z,984.16
2018-03-19T00:03:08.091Z,984.14
2018-03-19T00:04:08.235Z,984.17
2018-03-19T00:05:08.375Z,984.19
2018-03-19T00:06:08.516Z,984.18
2018-03-19T00:07:08.659Z,984.13
2018-03-19T00:08:08.801Z,984.14
2018-03-19T00:09:08.944Z,984.15
2018-03-19T00:10:09.086Z,984.14
2018-03-19T00:11:09.226Z,984.15
2018-03-19T00:12:09.368Z,984.14
2018-03-19T00:13:09.510Z,984.15
2018-03-19T00:14:09.649Z,984.16
2018-03-19T00:15:09.791Z,984.14
2018-03-19T00:16:09.936Z,984.11
2018-03-19T00:17:10.073Z,984.10
2018-03-19T00:18:10.217Z,984.13
2018-03-19T00:19:10.358Z,984.10
2018-03-19T00:20:10.500Z,984.12
2018-03-19T00:21:10.638Z,984.13
2018-03-19T00:22:10.782Z,984.15
2018-03-19T00:23:10.921Z,984.13
2018-03-19T00:24:11.063Z,984.14
2018-03-19T00:25:11.210Z,984.12
2018-03-19T00:26:11.348Z,984.14
2018-03-19T00:27:11.488Z,984.13
2018-03-19T00:28:11.629Z,984.07
2018-03-19T00:29:11.771Z,984.09
2018-03-19T00:30:11.913Z,984.10
2018-03-19T00:31:12.056Z,984.10
2018-03-19T00:32:12.199Z,984.11
2018-03-19T00:33:12.339Z,984.11
2018-03-19T00:34:12.484Z,984.10
2018-03-19T00:35:12.624Z,984.12
2018-03-19T00:36:12.766Z,984.09
2018-03-19T00:37:12.908Z,984.11
2018-03-19T00:38:13.049Z,984.10
2018-03-19T00:39:13.188Z,984.12
2018-03-19T00:40:13.331Z,984.08
2018-03-19T00:41:13.480Z,984.08
2018-03-19T00:42:13.618Z,984.08
2018-03-19T00:43:13.761Z,984.06
2018-03-19T00:44:13.902Z,984.08
2018-03-19T00:45:14.044Z,984.06
2018-03-19T00:46:14.186Z,984.04
2018-03-19T00:47:14.327Z,984.02
2018-03-19T00:48:14.468Z,984.02
2018-03-19T00:49:14.610Z,984.02
2018-03-19T00:50:14.754Z,983.98
2018-03-19T00:51:14.895Z,983.98
2018-03-19T00:52:15.036Z,983.99
2018-03-19T00:53:15.180Z,983.96
2018-03-19T00:54:15.321Z,984.00
2018-03-19T00:55:15.463Z,983.97
2018-03-19T00:56:15.602Z,983.94
2018-03-19T00:57:15.747Z,983.93
2018-03-19T00:58:15.887Z,983.94
2018-03-19T00:59:16.030Z,983.90
2018-03-19T01:00:16.178Z,983.86
2018-03-19T01:01:16.313Z,983.84
2018-03-19T01:02:16.456Z,983.86
2018-03-19T01:03:16.596Z,983.84
2018-03-19T01:04:16.745Z,983.82
2018-03-19T01:05:16.875Z,983.82
2018-03-19T01:06:17.020Z,983.80
2018-03-19T01:07:17.160Z,983.82
2018-03-19T01:08:17.305Z,983.77
2018-03-19T01:09:17.446Z,983.83
2018-03-19T01:10:17.588Z,983.76
2018-03-19T01:11:17.728Z,983.78
2018-03-19T01:12:17.871Z,983.78
2018-03-19T01:13:18.012Z,983.76
2018-03-19T01:14:18.153Z,983.83
2018-03-19T01:15:18.296Z,983.80
2018-03-19T01:16:18.444Z,983.76
2018-03-19T01:17:18.585Z,983.72
2018-03-19T01:18:18.725Z,983.73
2018-03-19T01:19:18.862Z,983.73
2018-03-19T01:20:19.000Z,983.74
2018-03-19T01:21:19.142Z,983.76
2018-03-19T01:22:19.284Z,983.73
2018-03-19T01:23:19.425Z,983.72
2018-03-19T01:24:19.577Z,983.74
2018-03-19T01:25:19.721Z,983.79
2018-03-19T01:26:19.861Z,983.70
2018-03-19T01:27:20.005Z,983.72
2018-03-19T01:28:20.147Z,983.71
2018-03-19T01:29:20.350Z,983.73
2018-03-19T01:30:20.429Z,983.70
2018-03-19T01:31:20.571Z,983.72
2018-03-19T01:32:20.713Z,983.75
2018-03-19T01:33:20.853Z,983.78
2018-03-19T01:34:20.995Z,983.79
2018-03-19T01:35:21.137Z,983.68
2018-03-19T01:36:21.279Z,983.66
2018-03-19T01:37:21.508Z,983.68
2018-03-19T01:38:21.561Z,983.70
2018-03-19T01:39:21.703Z,983.67
2018-03-19T01:40:21.843Z,983.65
2018-03-19T01:41:21.985Z,983.70
2018-03-19T01:42:22.125Z,983.68
2018-03-19T01:43:22.266Z,983.67
2018-03-19T01:44:22.407Z,983.71
2018-03-19T01:45:22.548Z,983.67
2018-03-19T01:46:22.689Z,983.70
2018-03-19T01:47:22.832Z,983.65
2018-03-19T01:48:22.972Z,983.69
2018-03-19T01:49:23.113Z,983.65
2018-03-19T01:50:23.254Z,983.64
2018-03-19T01:51:23.394Z,983.62
2018-03-19T01:52:23.539Z,983.66
2018-03-19T01:53:23.678Z,983.61
2018-03-19T01:54:23.826Z,983.58
2018-03-19T01:55:23.959Z,983.62
2018-03-19T01:56:24.104Z,983.58
2018-03-19T01:57:24.243Z,983.61
2018-03-19T01:58:24.385Z,983.59
2018-03-19T01:59:24.524Z,983.54
2018-03-19T02:00:24.666Z,983.55
2018-03-19T02:01:24.806Z,983.56
2018-03-19T02:02:24.949Z,983.53
2018-03-19T02:03:25.089Z,983.53
2018-03-19T02:04:25.232Z,983.55
2018-03-19T02:05:25.374Z,983.53
2018-03-19T02:06:25.515Z,983.50
2018-03-19T02:07:25.656Z,983.49
2018-03-19T02:08:25.800Z,983.52
2018-03-19T02:09:25.940Z,983.51
2018-03-19T02:10:26.084Z,983.53
2018-03-19T02:11:26.225Z,983.48
2018-03-19T02:12:26.368Z,983.50
2018-03-19T02:13:26.508Z,983.47
2018-03-19T02:14:26.650Z,983.51
2018-03-19T02:15:26.791Z,983.47
2018-03-19T02:16:26.932Z,983.46
2018-03-19T02:17:27.073Z,983.48
2018-03-19T02:18:27.214Z,983.44
2018-03-19T02:19:27.354Z,983.49
2018-03-19T02:20:27.497Z,983.45
2018-03-19T02:21:27.636Z,983.51
2018-03-19T02:22:27.777Z,983.51
2018-03-19T02:23:27.914Z,983.52
2018-03-19T02:24:28.057Z,983.50
2018-03-19T02:25:28.196Z,983.52
2018-03-19T02:26:28.341Z,983.52
2018-03-19T02:27:28.481Z,983.54
2018-03-19T02:28:28.625Z,983.55
2018-03-19T02:29:28.764Z,983.48
2018-03-19T02:30:28.903Z,983.52
2018-03-19T02:31:29.047Z,983.44
2018-03-19T02:32:29.189Z,983.53
2018-03-19T02:33:29.330Z,983.52
2018-03-19T02:34:29.470Z,983.54
2018-03-19T02:35:29.611Z,983.53
2018-03-19T02:36:29.750Z,983.54
2018-03-19T02:37:29.890Z,983.58
2018-03-19T02:38:30.033Z,983.58
2018-03-19T02:39:30.173Z,983.54
2018-03-19T02:40:30.312Z,983.56
2018-03-19T02:41:30.456Z,983.58
2018-03-19T02:42:30.595Z,983.58
2018-03-19T02:43:30.740Z,983.55
2018-03-19T02:44:30.881Z,983.58
2018-03-19T02:45:31.021Z,983.59
2018-03-19T02:46:31.157Z,983.62
2018-03-19T02:47:31.299Z,983.54
2018-03-19T02:48:31.441Z,983.58
2018-03-19T02:49:31.583Z,983.58
2018-03-19T02:50:31.727Z,983.59
2018-03-19T02:51:31.874Z,983.56
2018-03-19T02:52:32.006Z,983.59
2018-03-19T02:53:32.148Z,983.64
2018-03-19T02:54:32.288Z,983.65
2018-03-19T02:55:32.429Z,983.64
2018-03-19T02:56:32.570Z,983.69
2018-03-19T02:57:32.712Z,983.64
2018-03-19T02:58:32.854Z,983.66
2018-03-19T02:59:32.992Z,983.67
2018-03-19T03:00:33.134Z,983.72
2018-03-19T03:01:33.272Z,983.70
2018-03-19T03:02:33.414Z,983.70
2018-03-19T03:03:33.550Z,983.74
2018-03-19T03:04:33.696Z,983.76
2018-03-19T03:05:33.830Z,983.80
2018-03-19T03:06:33.971Z,983.75
2018-03-19T03:07:34.111Z,983.79
2018-03-19T03:08:34.251Z,983.77
2018-03-19T03:09:34.392Z,983.87
2018-03-19T03:10:34.538Z,983.85
2018-03-19T03:11:34.678Z,983.87
2018-03-19T03:12:34.820Z,983.87
2018-03-19T03:13:34.964Z,983.89
2018-03-19T03:14:35.105Z,983.91
2018-03-19T03:15:35.245Z,983.87
2018-03-19T03:16:35.389Z,983.87
2018-03-19T03:17:35.536Z,983.88
2018-03-19T03:18:35.677Z,983.86
2018-03-19T03:19:35.819Z,983.95
2018-03-19T03:20:35.962Z,983.91
2018-03-19T03:21:36.105Z,983.91
2018-03-19T03:22:36.243Z,983.95
2018-03-19T03:23:36.385Z,983.94
2018-03-19T03:24:36.526Z,983.89
2018-03-19T03:25:36.665Z,983.91
2018-03-19T03:26:36.807Z,983.89
2018-03-19T03:27:36.948Z,983.93
2018-03-19T03:28:37.090Z,983.92
2018-03-19T03:29:37.231Z,983.93
2018-03-19T03:30:37.376Z,983.92
2018-03-19T03:31:37.514Z,983.95
2018-03-19T03:32:37.658Z,983.92
2018-03-19T03:33:37.798Z,983.95
2018-03-19T03:34:37.940Z,983.98
2018-03-19T03:35:38.088Z,983.97
2018-03-19T03:36:38.226Z,983.97
2018-03-19T03:37:38.368Z,984.00
2018-03-19T03:38:38.509Z,983.97
2018-03-19T03:39:38.652Z,983.98
2018-03-19T03:40:38.792Z,983.99
2018-03-19T03:41:38.933Z,983.97
2018-03-19T03:42:39.075Z,984.01
2018-03-19T03:43:39.218Z,983.97
2018-03-19T03:44:39.359Z,983.97
2018-03-19T03:45:39.500Z,983.95
2018-03-19T03:46:39.644Z,983.94
2018-03-19T03:47:39.779Z,983.91
2018-03-19T03:48:39.976Z,983.91
2018-03-19T03:49:40.062Z,983.95
2018-03-19T03:50:40.203Z,983.89
2018-03-19T03:51:40.346Z,983.91
2018-03-19T03:52:40.485Z,983.89
2018-03-19T03:53:40.629Z,983.91
2018-03-19T03:54:40.769Z,983.90
2018-03-19T03:55:40.962Z,983.87
2018-03-19T03:56:41.052Z,983.88
2018-03-19T03:57:41.191Z,983.92
2018-03-19T03:58:41.332Z,983.88
2018-03-19T03:59:41.475Z,983.91
2018-03-19T04:00:41.617Z,983.86
2018-03-19T04:01:41.757Z,983.89
2018-03-19T04:02:41.895Z,983.89
2018-03-19T04:03:42.034Z,983.91
2018-03-19T04:04:42.176Z,983.92
2018-03-19T04:05:42.316Z,983.92
2018-03-19T04:06:42.489Z,983.91
2018-03-19T04:07:42.598Z,983.92
2018-03-19T04:08:42.743Z,983.93
2018-03-19T04:09:42.878Z,983.94
2018-03-19T04:10:43.024Z,983.92
2018-03-19T04:11:43.162Z,983.97
2018-03-19T04:12:43.298Z,983.94
2018-03-19T04:13:43.437Z,983.94
2018-03-19T04:14:43.581Z,983.97
2018-03-19T04:15:43.719Z,983.95
2018-03-19T04:16:43.881Z,984.00
2018-03-19T04:17:44.031Z,983.99
2018-03-19T04:18:44.165Z,983.99
2018-03-19T04:19:44.305Z,984.03
2018-03-19T04:20:44.447Z,984.04
2018-03-19T04:21:44.586Z,984.03
2018-03-19T04:22:44.731Z,984.05
2018-03-19T04:23:44.870Z,984.04
2018-03-19T04:24:45.010Z,984.08
2018-03-19T04:25:45.157Z,984.04
2018-03-19T04:26:45.293Z,984.05
2018-03-19T04:27:45.434Z,984.06
2018-03-19T04:28:45.581Z,984.06
2018-03-19T04:29:45.721Z,984.08
2018-03-19T04:30:45.863Z,984.09
2018-03-19T04:31:46.006Z,984.08
2018-03-19T04:32:46.140Z,984.08
2018-03-19T04:33:46.281Z,984.07
2018-03-19T04:34:46.422Z,984.10
2018-03-19T04:35:46.566Z,984.08
2018-03-19T04:36:46.710Z,984.16
2018-03-19T04:37:46.846Z,984.08
2018-03-19T04:38:46.994Z,984.12
2018-03-19T04:39:47.128Z,984.13
2018-03-19T04:40:47.268Z,984.09
2018-03-19T04:41:47.409Z,984.14
2018-03-19T04:42:47.551Z,984.05
2018-03-19T04:43:47.695Z,984.04
2018-03-19T04:44:47.845Z,984.04
2018-03-19T04:45:47.988Z,984.03
2018-03-19T04:46:48.125Z,984.05
2018-03-19T04:47:48.265Z,984.08
2018-03-19T04:48:48.422Z,984.06
2018-03-19T04:49:48.548Z,984.07
2018-03-19T04:50:48.690Z,984.09
2018-03-19T04:51:48.831Z,984.04
2018-03-19T04:52:48.973Z,984.03
2018-03-19T04:53:49.114Z,984.03
2018-03-19T04:54:49.274Z,984.00
2018-03-19T04:55:49.396Z,983.95
2018-03-19T04:56:49.535Z,983.98
2018-03-19T04:57:49.710Z,984.06
2018-03-19T04:58:49.817Z,984.06
2018-03-19T04:59:49.955Z,984.01
2018-03-19T05:00:50.098Z,984.01
2018-03-19T05:01:50.238Z,984.04
2018-03-19T05:02:50.381Z,984.09
2018-03-19T05:03:50.522Z,984.09
2018-03-19T05:04:50.663Z,984.10
2018-03-19T05:05:50.804Z,984.09
2018-03-19T05:06:50.947Z,984.09
2018-03-19T05:07:51.087Z,984.07
2018-03-19T05:08:51.226Z,984.05
2018-03-19T05:09:51.366Z,984.10
2018-03-19T05:10:51.506Z,984.10
2018-03-19T05:11:51.655Z,984.11
2018-03-19T05:12:51.791Z,984.10
2018-03-19T05:13:51.931Z,984.12
2018-03-19T05:14:52.070Z,984.11
2018-03-19T05:15:52.210Z,984.09
2018-03-19T05:16:52.349Z,984.13
2018-03-19T05:17:52.492Z,984.16
2018-03-19T05:18:52.664Z,984.18
2018-03-19T05:19:52.808Z,984.17
2018-03-19T05:20:52.921Z,984.16
2018-03-19T05:21:53.058Z,984.16
2018-03-19T05:22:53.203Z,984.20
2018-03-19T05:23:53.345Z,984.21
2018-03-19T05:24:53.481Z,984.20
2018-03-19T05:25:53.624Z,984.21
2018-03-19T05:26:53.765Z,984.20
2018-03-19T05:27:53.907Z,984.22
2018-03-19T05:28:54.046Z,984.26
2018-03-19T05:29:54.190Z,984.27
2018-03-19T05:30:54.328Z,984.33
2018-03-19T05:31:54.469Z,984.32
2018-03-19T05:32:54.609Z,984.32
2018-03-19T05:33:54.750Z,984.35
2018-03-19T05:34:54.891Z,984.40
2018-03-19T05:35:55.031Z,984.39
2018-03-19T05:36:55.173Z,984.39
2018-03-19T05:37:55.313Z,984.43
2018-03-19T05:38:55.454Z,984.43
2018-03-19T05:39:55.596Z,984.45
2018-03-19T05:40:55.737Z,984.44
2018-03-19T05:41:55.879Z,984.47
2018-03-19T05:42:56.019Z,984.48
2018-03-19T05:43:56.161Z,984.45
2018-03-19T05:44:56.300Z,984.50
2018-03-19T05:45:56.444Z,984.49
2018-03-19T05:46:56.584Z,984.47
2018-03-19T05:47:56.726Z,984.53
2018-03-19T05:48:56.867Z,984.52
2018-03-19T05:49:57.009Z,984.48
2018-03-19T05:50:57.152Z,984.54
2018-03-19T05:51:57.291Z,984.55
2018-03-19T05:52:57.438Z,984.55
2018-03-19T05:53:57.573Z,984.56
2018-03-19T05:54:57.714Z,984.58
2018-03-19T05:55:57.855Z,984.58
2018-03-19T05:56:57.998Z,984.58
2018-03-19T05:57:58.140Z,984.62
2018-03-19T05:58:58.280Z,984.60
2018-03-19T05:59:58.420Z,984.58
2018-03-19T06:00:58.561Z,984.58
2018-03-19T06:01:58.703Z,984.60
2018-03-19T06:02:58.843Z,984.61
2018-03-19T06:03:58.985Z,984.64
2018-03-19T06:04:59.129Z,984.65
2018-03-19T06:05:59.267Z,984.62
2018-03-19T06:06:59.409Z,984.63
2018-03-19T06:07:59.550Z,984.62
2018-03-19T06:08:59.691Z,984.62
2018-03-19T06:09:59.831Z,984.63
2018-03-19T06:10:59.970Z,984.63
2018-03-19T06:12:00.112Z,984.66
2018-03-19T06:13:00.286Z,984.64
2018-03-19T06:14:00.395Z,984.66
2018-03-19T06:15:00.565Z,984.70
2018-03-19T06:16:00.674Z,984.70
2018-03-19T06:17:00.811Z,984.72
2018-03-19T06:18:00.951Z,984.72
2018-03-19T06:19:01.240Z,984.70
2018-03-19T06:20:01.257Z,984.71
2018-03-19T06:21:01.423Z,984.73
2018-03-19T06:22:01.538Z,984.74
2018-03-19T06:23:01.685Z,984.74
2018-03-19T06:24:01.823Z,984.74
2018-03-19T06:25:01.970Z,984.71
2018-03-19T06:26:02.111Z,984.75
2018-03-19T06:27:02.253Z,984.81
2018-03-19T06:28:02.398Z,984.76
2018-03-19T06:29:02.542Z,984.71
2018-03-19T06:30:02.683Z,984.78
2018-03-19T06:31:02.823Z,984.70
2018-03-19T06:32:02.963Z,984.74
2018-03-19T06:33:03.102Z,984.73
2018-03-19T06:34:03.243Z,984.80
2018-03-19T06:35:03.390Z,984.80
2018-03-19T06:36:03.529Z,984.79
2018-03-19T06:37:03.670Z,984.85
2018-03-19T06:38:03.810Z,984.80
2018-03-19T06:39:03.956Z,984.81
2018-03-19T06:40:04.094Z,984.81
2018-03-19T06:41:04.234Z,984.83
2018-03-19T06:42:04.374Z,984.83
2018-03-19T06:43:04.521Z,984.82
2018-03-19T06:44:04.663Z,984.86
2018-03-19T06:45:04.804Z,984.84
2018-03-19T06:46:04.945Z,984.81
2018-03-19T06:47:05.086Z,984.84
2018-03-19T06:48:05.229Z,984.80
2018-03-19T06:49:05.373Z,984.89
2018-03-19T06:50:05.514Z,984.89
2018-03-19T06:51:05.654Z,984.89
2018-03-19T06:52:05.794Z,984.86
2018-03-19T06:53:05.938Z,984.85
2018-03-19T06:54:06.079Z,984.79
2018-03-19T06:55:06.222Z,984.84
2018-03-19T06:56:06.362Z,984.81
2018-03-19T06:57:06.503Z,984.85
2018-03-19T06:58:06.646Z,984.82
2018-03-19T06:59:06.787Z,984.76
2018-03-19T07:00:06.927Z,984.84
2018-03-19T07:01:07.069Z,984.77
2018-03-19T07:02:07.216Z,984.80
2018-03-19T07:03:07.352Z,984.82
2018-03-19T07:04:07.489Z,984.84
2018-03-19T07:05:07.632Z,984.84
2018-03-19T07:06:07.774Z,984.78
2018-03-19T07:07:07.915Z,984.84
2018-03-19T07:08:08.059Z,984.88
2018-03-19T07:09:08.213Z,984.81
2018-03-19T07:10:08.355Z,984.83
2018-03-19T07:11:08.494Z,984.87
2018-03-19T07:12:08.634Z,984.89
2018-03-19T07:13:08.780Z,984.92
2018-03-19T07:14:08.916Z,984.92
2018-03-19T07:15:09.064Z,984.93
2018-03-19T07:16:09.208Z,984.89
2018-03-19T07:17:09.348Z,984.92
2018-03-19T07:18:09.487Z,984.91
2018-03-19T07:19:09.628Z,984.90
2018-03-19T07:20:09.769Z,984.94
2018-03-19T07:21:09.910Z,984.96
2018-03-19T07:22:10.053Z,984.91
2018-03-19T07:23:10.192Z,985.03
2018-03-19T07:24:10.337Z,984.99
2018-03-19T07:25:10.484Z,984.99
2018-03-19T07:26:10.649Z,985.07
2018-03-19T07:27:10.792Z,985.02
2018-03-19T07:28:10.937Z,985.08
2018-03-19T07:29:11.077Z,985.10
2018-03-19T07:30:11.216Z,985.04
2018-03-19T07:31:11.356Z,985.10
2018-03-19T07:32:11.498Z,985.07
2018-03-19T07:33:11.640Z,985.11
2018-03-19T07:34:11.784Z,985.07
2018-03-19T07:35:11.923Z,985.13
2018-03-19T07:36:12.065Z,985.12
2018-03-19T07:37:12.205Z,985.13
2018-03-19T07:38:12.347Z,985.11
2018-03-19T07:39:12.497Z,985.12
2018-03-19T07:40:12.632Z,985.09
2018-03-19T07:41:12.778Z,985.12
2018-03-19T07:42:12.930Z,985.16
2018-03-19T07:43:13.062Z,985.14
2018-03-19T07:44:13.202Z,985.22
2018-03-19T07:45:13.343Z,985.16
2018-03-19T07:46:13.484Z,985.16
2018-03-19T07:47:13.633Z,985.21
2018-03-19T07:48:13.777Z,985.21
2018-03-19T07:49:13.919Z,985.17
2018-03-19T07:50:14.059Z,985.11
2018-03-19T07:51:14.200Z,985.13
2018-03-19T07:52:14.340Z,985.14
2018-03-19T07:53:14.483Z,985.17
2018-03-19T07:54:14.624Z,985.16
2018-03-19T07:55:14.766Z,985.16
2018-03-19T07:56:14.910Z,985.16
2018-03-19T07:57:15.078Z,985.22
2018-03-19T07:58:15.205Z,985.21
2018-03-19T07:59:15.327Z,985.19
2018-03-19T08:00:15.468Z,985.21
2018-03-19T08:01:15.612Z,985.22
2018-03-19T08:02:15.751Z,985.23
2018-03-19T08:03:15.896Z,985.24
2018-03-19T08:04:16.035Z,985.23
2018-03-19T08:05:16.176Z,985.21
2018-03-19T08:06:16.322Z,985.26
2018-03-19T08:07:16.464Z,985.29
2018-03-19T08:08:16.604Z,985.28
2018-03-19T08:09:16.742Z,985.28
2018-03-19T08:10:16.884Z,985.30
2018-03-19T08:11:17.028Z,985.30
2018-03-19T08:12:17.184Z,985.31
2018-03-19T08:13:17.310Z,985.33
2018-03-19T08:14:17.455Z,985.29
2018-03-19T08:15:17.598Z,985.35
2018-03-19T08:16:17.738Z,985.32
2018-03-19T08:17:17.881Z,985.32
2018-03-19T08:18:18.026Z,985.35
2018-03-19T08:19:18.168Z,985.29
2018-03-19T08:20:18.308Z,985.30
2018-03-19T08:21:18.455Z,985.29
2018-03-19T08:22:18.590Z,985.27
2018-03-19T08:23:18.731Z,985.25
2018-03-19T08:24:18.875Z,985.27
2018-03-19T08:25:19.017Z,985.24
2018-03-19T08:26:19.159Z,985.23
2018-03-19T08:27:19.298Z,985.28
2018-03-19T08:28:19.445Z,985.20
2018-03-19T08:29:19.585Z,985.24
2018-03-19T08:30:19.729Z,985.19
2018-03-19T08:31:19.870Z,985.25
2018-03-19T08:32:20.014Z,985.26
2018-03-19T08:33:20.155Z,985.25
2018-03-19T08:34:20.299Z,985.29
2018-03-19T08:35:20.440Z,985.24
2018-03-19T08:36:20.584Z,985.18
2018-03-19T08:37:20.724Z,985.24
2018-03-19T08:38:20.867Z,985.25
2018-03-19T08:39:21.010Z,985.27
2018-03-19T08:40:21.154Z,985.29
2018-03-19T08:41:21.296Z,985.32
2018-03-19T08:42:21.438Z,985.28
2018-03-19T08:43:21.583Z,985.26
2018-03-19T08:44:21.723Z,985.29
2018-03-19T08:45:21.868Z,985.28
2018-03-19T08:46:22.050Z,985.29
2018-03-19T08:47:22.155Z,985.30
2018-03-19T08:48:22.301Z,985.30
2018-03-19T08:49:22.442Z,985.28
2018-03-19T08:50:22.600Z,985.27
2018-03-19T08:51:22.728Z,985.25
2018-03-19T08:52:22.873Z,985.23
2018-03-19T08:53:23.012Z,985.30
2018-03-19T08:54:23.158Z,985.27
2018-03-19T08:55:23.305Z,985.26
2018-03-19T08:56:23.441Z,985.28
2018-03-19T08:57:23.589Z,985.26
2018-03-19T08:58:23.783Z,985.27
2018-03-19T08:59:23.874Z,985.23
2018-03-19T09:00:24.016Z,985.26
2018-03-19T09:01:24.158Z,985.22
2018-03-19T09:02:24.303Z,985.25
2018-03-19T09:03:24.446Z,985.24
2018-03-19T09:04:24.585Z,985.21
2018-03-19T09:05:24.732Z,985.18
2018-03-19T09:06:24.876Z,985.19
2018-03-19T09:07:25.020Z,985.18
2018-03-19T09:08:25.165Z,985.14
2018-03-19T09:09:25.315Z,985.19
2018-03-19T09:10:25.449Z,985.21
2018-03-19T09:11:25.589Z,985.22
2018-03-19T09:12:25.738Z,985.23
2018-03-19T09:13:25.879Z,985.18
2018-03-19T09:14:26.024Z,985.19
2018-03-19T09:15:26.168Z,985.13
2018-03-19T09:16:26.310Z,985.14
2018-03-19T09:17:26.483Z,985.07
2018-03-19T09:18:26.622Z,985.14
2018-03-19T09:19:26.765Z,985.19
2018-03-19T09:20:26.906Z,985.14
2018-03-19T09:21:27.051Z,985.15
2018-03-19T09:22:27.197Z,985.16
2018-03-19T09:23:27.339Z,985.17
2018-03-19T09:24:27.482Z,985.15
2018-03-19T09:25:27.629Z,985.16
2018-03-19T09:26:27.776Z,985.22
2018-03-19T09:27:27.919Z,985.17
2018-03-19T09:28:28.062Z,985.18
2018-03-19T09:29:28.209Z,985.13
2018-03-19T09:30:28.352Z,985.15
2018-03-19T09:31:28.493Z,985.15
2018-03-19T09:32:28.638Z,985.21
2018-03-19T09:33:28.783Z,985.10
2018-03-19T09:34:28.929Z,985.13
2018-03-19T09:35:29.080Z,985.16
2018-03-19T09:36:29.215Z,985.11
2018-03-19T09:37:29.358Z,985.17
2018-03-19T09:38:29.506Z,985.15
2018-03-19T09:39:29.651Z,985.20
2018-03-19T09:40:29.794Z,985.16
2018-03-19T09:41:29.937Z,985.18
2018-03-19T09:42:30.082Z,985.17
2018-03-19T09:43:30.225Z,985.18
2018-03-19T09:44:30.370Z,985.14
2018-03-19T09:45:30.514Z,985.20
2018-03-19T09:46:30.661Z,985.16
2018-03-19T09:47:30.809Z,985.15
2018-03-19T09:48:30.950Z,985.17
2018-03-19T09:49:31.099Z,985.15
2018-03-19T09:50:31.238Z,985.11
2018-03-19T09:51:31.382Z,985.19
2018-03-19T09:52:31.527Z,985.15
2018-03-19T09:53:31.673Z,985.16
2018-03-19T09:54:31.821Z,985.21
2018-03-19T09:55:31.962Z,985.22
2018-03-19T09:56:32.107Z,985.20
2018-03-19T09:57:32.249Z,985.18
2018-03-19T09:58:32.397Z,985.21
2018-03-19T09:59:32.545Z,985.24
2018-03-19T10:00:32.690Z,985.19
2018-03-19T10:01:32.831Z,985.15
2018-03-19T10:02:32.975Z,985.19
2018-03-19T10:03:33.119Z,985.18
2018-03-19T10:04:33.261Z,985.25
2018-03-19T10:05:33.408Z,985.17
2018-03-19T10:06:33.555Z,985.19
2018-03-19T10:07:33.698Z,985.17
2018-03-19T10:08:33.845Z,985.13
2018-03-19T10:09:33.990Z,985.15
2018-03-19T10:10:34.132Z,985.20
2018-03-19T10:11:34.278Z,985.21
2018-03-19T10:12:34.420Z,985.19
2018-03-19T10:13:34.566Z,985.19
2018-03-19T10:14:34.708Z,985.23
2018-03-19T10:15:34.856Z,985.20
2018-03-19T10:16:34.999Z,985.20
2018-03-19T10:17:35.145Z,985.21
2018-03-19T10:18:35.291Z,985.18
2018-03-19T10:19:35.434Z,985.19
2018-03-19T10:20:35.577Z,985.20
2018-03-19T10:21:35.720Z,985.21
2018-03-19T10:22:35.864Z,985.23
2018-03-19T10:23:36.009Z,985.21
2018-03-19T10:24:36.153Z,985.23
2018-03-19T10:25:36.298Z,985.22
2018-03-19T10:26:36.444Z,985.24
2018-03-19T10:27:36.647Z,985.30
2018-03-19T10:28:36.732Z,985.28
2018-03-19T10:29:36.882Z,985.22
2018-03-19T10:30:37.029Z,985.29
2018-03-19T10:31:37.170Z,985.22
2018-03-19T10:32:37.313Z,985.22
2018-03-19T10:33:37.455Z,985.23
2018-03-19T10:34:37.600Z,985.16
2018-03-19T10:35:37.743Z,985.15
2018-03-19T10:36:37.903Z,985.11
2018-03-19T10:37:38.041Z,985.10
2018-03-19T10:38:38.225Z,985.07
2018-03-19T10:39:38.332Z,985.07
2018-03-19T10:40:38.481Z,985.11
2018-03-19T10:41:38.618Z,985.10
2018-03-19T10:42:38.766Z,985.13
2018-03-19T10:43:38.908Z,985.10
2018-03-19T10:44:39.056Z,985.16
2018-03-19T10:45:39.201Z,985.17
2018-03-19T10:46:39.343Z,985.15
2018-03-19T10:47:39.492Z,985.23
2018-03-19T10:48:39.638Z,985.16
2018-03-19T10:49:39.780Z,985.17
2018-03-19T10:50:39.930Z,985.22
2018-03-19T10:51:40.078Z,985.16
2018-03-19T10:52:40.223Z,985.20
2018-03-19T10:53:40.368Z,985.23
2018-03-19T10:54:40.507Z,985.19
2018-03-19T10:55:40.645Z,985.20
2018-03-19T10:56:40.819Z,985.17
2018-03-19T10:57:40.969Z,985.11
2018-03-19T10:58:41.120Z,985.16
2018-03-19T10:59:41.263Z,985.10
2018-03-19T11:00:41.406Z,985.14
2018-03-19T11:01:41.551Z,985.17
2018-03-19T11:02:41.696Z,985.09
2018-03-19T11:03:41.841Z,985.17
2018-03-19T11:04:41.988Z,985.18
2018-03-19T11:05:42.134Z,985.10
2018-03-19T11:06:42.279Z,985.13
2018-03-19T11:07:42.424Z,985.13
2018-03-19T11:08:42.567Z,985.17
2018-03-19T11:09:42.712Z,985.10
2018-03-19T11:10:42.859Z,985.15
2018-03-19T11:11:43.004Z,985.12
2018-03-19T11:12:43.151Z,985.14
2018-03-19T11:13:43.297Z,985.15
2018-03-19T11:14:43.442Z,985.12
2018-03-19T11:15:43.583Z,985.14
2018-03-19T11:16:43.726Z,985.13
2018-03-19T11:17:43.874Z,985.08
2018-03-19T11:18:44.017Z,985.06
2018-03-19T11:19:44.166Z,985.09
2018-03-19T11:20:44.312Z,985.04
2018-03-19T11:21:44.456Z,985.05
2018-03-19T11:22:44.605Z,985.01
2018-03-19T11:23:44.754Z,985.01
2018-03-19T11:24:44.899Z,984.95
2018-03-19T11:25:45.051Z,984.95
2018-03-19T11:26:45.194Z,985.00
2018-03-19T11:27:45.344Z,984.95
2018-03-19T11:28:45.487Z,984.98
2018-03-19T11:29:45.642Z,984.94
2018-03-19T11:30:45.780Z,984.98
2018-03-19T11:31:45.931Z,984.99
2018-03-19T11:32:46.070Z,985.00
2018-03-19T11:33:46.217Z,985.05
2018-03-19T11:34:46.355Z,984.98
2018-03-19T11:35:46.507Z,985.03
2018-03-19T11:36:46.656Z,984.98
2018-03-19T11:37:46.811Z,984.95
2018-03-19T11:38:46.948Z,984.97
2018-03-19T11:39:47.095Z,984.94
2018-03-19T11:40:47.317Z,984.94
2018-03-19T11:41:47.395Z,984.93
2018-03-19T11:42:47.532Z,984.93
2018-03-19T11:43:47.678Z,984.90
2018-03-19T11:44:47.832Z,984.88
2018-03-19T11:45:47.972Z,984.81
2018-03-19T11:46:48.118Z,984.88
2018-03-19T11:47:48.264Z,984.87
2018-03-19T11:48:48.412Z,984.88
2018-03-19T11:49:48.560Z,984.89
2018-03-19T11:50:48.709Z,984.79
2018-03-19T11:51:48.857Z,984.82
2018-03-19T11:52:49.046Z,984.81
2018-03-19T11:53:49.156Z,984.76
2018-03-19T11:54:49.297Z,984.89
2018-03-19T11:55:49.472Z,984.81
2018-03-19T11:56:49.584Z,984.77
2018-03-19T11:57:49.728Z,984.80
2018-03-19T11:58:49.877Z,984.79
2018-03-19T11:59:50.024Z,984.76
2018-03-19T12:00:50.172Z,984.75
2018-03-19T12:01:50.317Z,984.80
2018-03-19T12:02:50.467Z,984.78
2018-03-19T12:03:50.627Z,984.82
2018-03-19T12:04:50.796Z,984.79
2018-03-19T12:05:50.905Z,984.78
2018-03-19T12:06:51.052Z,984.76
2018-03-19T12:07:51.198Z,984.74
2018-03-19T12:08:51.355Z,984.77
2018-03-19T12:09:51.492Z,984.80
2018-03-19T12:10:51.640Z,984.80
2018-03-19T12:11:51.786Z,984.79
2018-03-19T12:12:51.933Z,984.81
2018-03-19T12:13:52.081Z,984.77
2018-03-19T12:14:52.248Z,984.74
2018-03-19T12:15:52.389Z,984.74
2018-03-19T12:16:52.513Z,984.77
2018-03-19T12:17:52.658Z,984.74
2018-03-19T12:18:52.803Z,984.70
2018-03-19T12:19:52.949Z,984.74
2018-03-19T12:20:53.101Z,984.73
2018-03-19T12:21:53.245Z,984.65
2018-03-19T12:22:53.395Z,984.65
2018-03-19T12:23:53.538Z,984.71
2018-03-19T12:24:53.685Z,984.66
2018-03-19T12:25:53.827Z,984.71
2018-03-19T12:26:53.991Z,984.70
2018-03-19T12:27:54.116Z,984.71
2018-03-19T12:28:54.262Z,984.66
2018-03-19T12:29:54.408Z,984.63